createdAt,value
2018-09-17T00:01:07.096Z,5.77
2018-09-17T00:06:10.388Z,6.70
2018-09-17T00:11:13.663Z,5.57
2018-09-17T00:16:17.019Z,6.17
2018-09-17T00:21:20.329Z,5.90
2018-09-17T00:26:23.594Z,6.67
2018-09-17T00:31:26.836Z,5.80
2018-09-17T00:36:29.871Z,7.20
2018-09-17T00:41:33.136Z,7.20
2018-09-17T00:46:36.404Z,7.40
2018-09-17T00:51:39.717Z,6.60
2018-09-17T00:56:42.721Z,6.30
2018-09-17T01:01:52.312Z,6.80
2018-09-17T01:06:55.624Z,7.10
2018-09-17T01:11:59.620Z,7.13
2018-09-17T01:17:02.916Z,7.17
2018-09-17T01:22:06.184Z,6.93
2018-09-17T01:27:09.479Z,7.70
2018-09-17T01:32:12.731Z,7.37
2018-09-17T01:37:16.024Z,8.17
2018-09-17T01:42:19.332Z,8.07
2018-09-17T01:47:22.607Z,7.13
2018-09-17T01:52:25.906Z,7.63
2018-09-17T01:57:29.165Z,6.93
2018-09-17T02:02:32.885Z,7.43
2018-09-17T02:07:36.171Z,7.13
2018-09-17T02:12:39.456Z,7.53
2018-09-17T02:17:42.753Z,7.17
2018-09-17T02:22:46.068Z,6.63
2018-09-17T02:27:49.335Z,6.50
2018-09-17T02:32:52.606Z,6.80
2018-09-17T02:37:55.657Z,6.40
2018-09-17T02:42:58.912Z,6.47
2018-09-17T02:48:02.176Z,7.07
2018-09-17T02:53:05.460Z,7.33
2018-09-17T02:58:08.757Z,6.87
2018-09-17T03:03:11.754Z,7.70
2018-09-17T03:08:15.011Z,6.83
2018-09-17T03:13:18.366Z,6.70
2018-09-17T03:18:34.477Z,7.10
2018-09-17T03:23:38.514Z,7.13
2018-09-17T03:28:41.772Z,7.00
2018-09-17T03:33:45.062Z,7.57
2018-09-17T03:38:49.276Z,7.37
2018-09-17T03:43:52.889Z,6.83
2018-09-17T03:48:56.162Z,7.60
2018-09-17T03:53:59.443Z,7.10
2018-09-17T03:59:02.737Z,7.13
2018-09-17T04:04:06.258Z,7.53
2018-09-17T04:09:09.702Z,7.00
2018-09-17T04:14:13.075Z,8.07
2018-09-17T04:19:16.497Z,7.73
2018-09-17T04:24:19.906Z,8.30
2018-09-17T04:29:23.275Z,7.10
2018-09-17T04:34:26.564Z,7.30
2018-09-17T04:39:29.910Z,7.53
2018-09-17T04:44:33.168Z,7.37
2018-09-17T04:49:36.411Z,7.60
2018-09-17T04:54:39.389Z,7.63
2018-09-17T04:59:42.716Z,7.33
2018-09-17T05:04:45.733Z,7.40
2018-09-17T05:09:49.109Z,6.80
2018-09-17T05:14:52.371Z,6.97
2018-09-17T05:19:55.612Z,7.50
2018-09-17T05:24:58.874Z,7.90
2018-09-17T05:30:02.132Z,7.60
2018-09-17T05:35:05.513Z,7.30
2018-09-17T05:40:08.771Z,7.00
2018-09-17T05:45:12.022Z,7.07
2018-09-17T05:50:15.283Z,6.93
2018-09-17T05:55:18.539Z,6.47
2018-09-17T06:00:21.807Z,6.30
2018-09-17T06:05:25.069Z,7.10
2018-09-17T06:10:28.321Z,7.43
2018-09-17T06:15:31.570Z,6.83
2018-09-17T06:20:34.837Z,6.80
2018-09-17T06:25:38.091Z,7.20
2018-09-17T06:30:44.275Z,7.90
2018-09-17T06:35:47.571Z,7.80
2018-09-17T06:40:50.839Z,8.30
2018-09-17T06:45:54.098Z,7.93
2018-09-17T06:50:57.372Z,7.77
2018-09-17T06:56:00.627Z,8.50
2018-09-17T07:01:03.927Z,8.63
2018-09-17T07:06:07.204Z,8.67
2018-09-17T07:11:11.130Z,8.57
2018-09-17T07:16:14.399Z,8.93
2018-09-17T07:21:17.664Z,10.43
2018-09-17T07:26:20.947Z,10.30
2018-09-17T07:31:30.860Z,10.80
2018-09-17T07:36:34.203Z,10.40
2018-09-17T07:41:37.445Z,10.93
2018-09-17T07:46:40.701Z,11.07
2018-09-17T07:51:43.966Z,10.63
2018-09-17T07:56:47.249Z,11.30
2018-09-17T08:01:50.513Z,11.28
2018-09-17T08:06:53.779Z,11.78
2018-09-17T08:11:57.051Z,11.08
2018-09-17T08:17:00.361Z,13.80
2018-09-17T08:22:03.582Z,12.23
2018-09-17T08:27:06.856Z,13.75
2018-09-17T08:32:10.115Z,13.40
2018-09-17T08:37:13.392Z,14.78
2018-09-17T08:42:16.657Z,15.18
2018-09-17T08:47:19.920Z,14.18
2018-09-17T08:52:23.193Z,14.58
2018-09-17T08:57:31.516Z,16.12
2018-09-17T09:02:40.124Z,14.10
2018-09-17T09:07:48.904Z,16.23
2018-09-17T09:12:57.691Z,15.65
2018-09-17T09:18:00.964Z,16.40
2018-09-17T09:23:04.270Z,17.35
2018-09-17T09:28:07.540Z,19.37
2018-09-17T09:33:10.805Z,16.13
2018-09-17T09:38:14.093Z,16.37
2018-09-17T09:43:17.340Z,16.27
2018-09-17T09:48:20.611Z,17.37
2018-09-17T09:53:23.888Z,15.75
2018-09-17T09:58:27.136Z,15.65
2018-09-17T10:03:34.630Z,15.68
2018-09-17T10:09:40.978Z,15.40
2018-09-17T10:14:49.614Z,13.25
2018-09-17T10:19:53.339Z,12.33
2018-09-17T10:24:56.608Z,12.73
2018-09-17T10:29:59.956Z,11.20
2018-09-17T10:35:03.224Z,12.07
2018-09-17T10:40:06.485Z,12.53
2018-09-17T10:45:09.759Z,10.40
2018-09-17T10:50:13.099Z,11.15
2018-09-17T10:55:16.351Z,11.22
2018-09-17T11:00:19.688Z,11.70
2018-09-17T11:05:22.960Z,11.85
2018-09-17T11:10:26.264Z,10.70
2018-09-17T11:15:33.744Z,11.43
2018-09-17T11:20:36.991Z,10.93
2018-09-17T11:25:40.278Z,9.20
2018-09-17T11:30:43.607Z,8.20
2018-09-17T11:35:46.915Z,10.00
2018-09-17T11:40:50.172Z,9.00
2018-09-17T11:45:53.423Z,7.35
2018-09-17T11:50:56.674Z,8.68
2018-09-17T11:55:59.928Z,8.88
2018-09-17T12:01:08.628Z,7.62
2018-09-17T12:06:11.888Z,7.58
2018-09-17T12:11:15.826Z,6.58
2018-09-17T12:16:19.090Z,7.37
2018-09-17T12:21:22.965Z,7.15
2018-09-17T12:26:26.518Z,7.92
2018-09-17T12:31:29.788Z,8.70
2018-09-17T12:36:33.358Z,6.65
2018-09-17T12:41:36.624Z,6.85
2018-09-17T12:46:39.867Z,7.40
2018-09-17T12:51:43.130Z,6.40
2018-09-17T12:56:46.428Z,6.42
2018-09-17T13:01:49.677Z,6.47
2018-09-17T13:06:52.939Z,5.47
2018-09-17T13:11:56.214Z,5.58
2018-09-17T13:16:59.471Z,6.70
2018-09-17T13:22:02.748Z,6.42
2018-09-17T13:27:06.974Z,6.08
2018-09-17T13:32:10.236Z,5.65
2018-09-17T13:37:13.511Z,6.75
2018-09-17T13:42:16.771Z,6.83
2018-09-17T13:47:20.049Z,5.75
2018-09-17T13:52:23.311Z,6.90
2018-09-17T13:57:26.692Z,6.35
2018-09-17T14:02:29.952Z,6.67
2018-09-17T14:07:33.248Z,7.30
2018-09-17T14:12:36.518Z,5.60
2018-09-17T14:17:39.777Z,6.40
2018-09-17T14:22:43.054Z,6.08
2018-09-17T14:27:47.243Z,5.72
2018-09-17T14:33:59.564Z,5.72
2018-09-17T14:39:02.847Z,5.92
2018-09-17T14:44:06.134Z,5.42
2018-09-17T14:49:09.463Z,6.67
2018-09-17T14:54:12.677Z,6.35
2018-09-17T14:59:15.939Z,6.33
2018-09-17T15:04:19.256Z,6.90
2018-09-17T15:09:22.476Z,6.67
2018-09-17T15:14:25.914Z,6.65
2018-09-17T15:19:29.016Z,6.25
2018-09-17T15:24:32.272Z,6.33
2018-09-17T15:29:35.528Z,7.10
2018-09-17T15:34:38.812Z,7.35
2018-09-17T15:39:42.055Z,7.08
2018-09-17T15:44:45.340Z,7.40
2018-09-17T15:49:48.643Z,8.65
2018-09-17T15:54:51.864Z,7.97
2018-09-17T15:59:55.123Z,7.80
2018-09-17T16:04:58.383Z,7.90
2018-09-17T16:10:01.624Z,7.62
2018-09-17T16:15:04.928Z,7.25
2018-09-17T16:20:08.178Z,7.78
2018-09-17T16:25:11.484Z,8.83
2018-09-17T16:30:14.748Z,8.30
2018-09-17T16:35:18.040Z,8.73
2018-09-17T16:40:21.378Z,8.58
2018-09-17T16:45:24.791Z,8.60
2018-09-17T16:50:28.066Z,9.87
2018-09-17T16:55:31.323Z,9.43
2018-09-17T17:00:34.575Z,8.83
2018-09-17T17:05:37.825Z,8.83
2018-09-17T17:10:41.424Z,9.27
2018-09-17T17:15:48.159Z,7.60
2018-09-17T17:20:51.542Z,8.43
2018-09-17T17:25:54.818Z,8.83
2018-09-17T17:30:58.108Z,9.00
2018-09-17T17:36:01.391Z,8.77
2018-09-17T17:41:04.719Z,9.83
2018-09-17T17:46:08.329Z,9.70
2018-09-17T17:51:11.572Z,9.20
2018-09-17T17:56:14.830Z,10.10
2018-09-17T18:01:18.188Z,9.80
2018-09-17T18:06:21.431Z,10.43
2018-09-17T18:11:24.702Z,10.33
2018-09-17T18:16:30.631Z,11.47
2018-09-17T18:21:33.944Z,11.30
2018-09-17T18:26:37.700Z,11.77
2018-09-17T18:31:40.709Z,11.00
2018-09-17T18:36:43.887Z,11.87
2018-09-17T18:41:47.276Z,11.77
2018-09-17T18:46:50.576Z,12.70
2018-09-17T18:51:54.276Z,13.20
2018-09-17T18:56:57.615Z,11.43
2018-09-17T19:02:00.562Z,13.53
2018-09-17T19:07:04.018Z,11.90
2018-09-17T19:12:07.208Z,12.37
2018-09-17T19:17:15.697Z,12.00
2018-09-17T19:22:24.547Z,12.57
2018-09-17T19:29:35.440Z,13.10
2018-09-17T19:34:38.714Z,12.33
2018-09-17T19:39:47.215Z,13.20
2018-09-17T19:44:57.660Z,13.10
2018-09-17T19:50:01.744Z,13.80
2018-09-17T19:55:05.065Z,12.13
2018-09-17T20:00:08.339Z,14.80
2018-09-17T20:05:17.078Z,14.57
2018-09-17T20:10:21.691Z,32.20
2018-09-17T20:15:26.465Z,31.77
2018-09-17T20:20:30.059Z,26.73
2018-09-17T20:25:35.366Z,15.30
2018-09-17T20:30:38.724Z,16.03
2018-09-17T20:35:42.032Z,15.40
2018-09-17T20:40:45.672Z,15.90
2018-09-17T20:45:49.966Z,15.23
2018-09-17T20:50:56.474Z,13.27
2018-09-17T20:56:00.409Z,13.63
2018-09-17T21:01:05.262Z,13.90
2018-09-17T21:06:08.501Z,14.37
2018-09-17T21:11:12.822Z,14.20
2018-09-17T21:16:16.669Z,14.17
2018-09-17T21:21:20.837Z,12.83
2018-09-17T21:26:25.023Z,13.53
2018-09-17T21:31:29.656Z,14.30
2018-09-17T21:36:34.419Z,13.93
2018-09-17T21:41:38.012Z,14.13
2018-09-17T21:46:41.659Z,13.97
2018-09-17T21:51:44.945Z,13.57
2018-09-17T21:56:48.211Z,15.60
2018-09-17T22:01:51.480Z,13.10
2018-09-17T22:06:54.735Z,13.87
2018-09-17T22:11:57.733Z,14.37
2018-09-17T22:17:00.988Z,14.53
2018-09-17T22:22:04.260Z,14.60
2018-09-17T22:27:07.776Z,14.30
2018-09-17T22:32:10.811Z,14.43
2018-09-17T22:37:13.810Z,15.27
2018-09-17T22:42:17.104Z,15.13
2018-09-17T22:47:20.349Z,26.33
2018-09-17T22:52:23.807Z,21.33
2018-09-17T22:57:27.068Z,39.07
2018-09-17T23:02:30.327Z,55.97
2018-09-17T23:07:33.595Z,68.27
2018-09-17T23:12:36.871Z,70.73
2018-09-17T23:17:40.094Z,53.60
2018-09-17T23:22:43.347Z,41.03
2018-09-17T23:27:46.634Z,43.47
2018-09-17T23:32:49.878Z,41.33
2018-09-17T23:37:53.176Z,43.93
2018-09-17T23:42:56.198Z,39.37
2018-09-17T23:47:59.469Z,38.10
2018-09-17T23:53:02.710Z,34.27
2018-09-17T23:58:05.986Z,33.50
